createdAt,value
2023-04-26T00:00:29.426Z,99534.73
2023-04-26T00:03:14.834Z,99529.23
2023-04-26T00:05:43.572Z,99530.08
2023-04-26T00:08:11.860Z,99532.14
2023-04-26T00:10:40.800Z,99535.93
2023-04-26T00:13:08.984Z,99532.16
2023-04-26T00:15:37.128Z,99536.63
2023-04-26T00:18:05.249Z,99536.46
2023-04-26T00:20:33.265Z,99540.93
2023-04-26T00:23:01.664Z,99541.63
2023-04-26T00:25:29.788Z,99548.16
2023-04-26T00:27:57.703Z,99542.98
2023-04-26T00:30:25.620Z,99546.05
2023-04-26T00:32:53.813Z,99552.77
2023-04-26T00:35:23.279Z,99555.69
2023-04-26T00:37:51.533Z,99557.07
2023-04-26T00:40:20.725Z,99555.16
2023-04-26T00:42:48.831Z,99559.46
2023-04-26T00:45:17.052Z,99561.54
2023-04-26T00:47:45.061Z,99563.77
2023-04-26T00:50:12.986Z,99560.65
2023-04-26T00:52:40.941Z,99558.59
2023-04-26T00:55:10.156Z,99562.02
2023-04-26T00:57:40.328Z,99562.02
2023-04-26T01:00:09.496Z,99559.61
2023-04-26T01:02:38.875Z,99563.73
2023-04-26T01:05:09.235Z,99562.16
2023-04-26T01:07:39.020Z,99561.29
2023-04-26T01:10:09.478Z,99561.80
2023-04-26T01:12:38.691Z,99569.17
2023-04-26T01:15:07.508Z,99570.20
2023-04-26T01:17:37.931Z,99575.66
2023-04-26T01:20:08.879Z,99577.20
2023-04-26T01:22:36.903Z,99576.34
2023-04-26T01:25:07.906Z,99579.42
2023-04-26T01:27:36.848Z,99580.63
2023-04-26T01:30:05.746Z,99580.28
2023-04-26T01:32:35.046Z,99577.17
2023-04-26T01:35:03.182Z,99584.58
2023-04-26T01:37:31.897Z,99588.89
2023-04-26T01:40:00.932Z,99588.90
2023-04-26T01:42:28.870Z,99586.66
2023-04-26T01:44:56.891Z,99587.70
2023-04-26T01:47:26.628Z,99585.45
2023-04-26T01:49:55.058Z,99582.71
2023-04-26T01:52:23.103Z,99587.00
2023-04-26T01:54:51.534Z,99589.06
2023-04-26T01:57:21.386Z,99589.23
2023-04-26T01:59:49.790Z,99590.09
2023-04-26T02:02:21.627Z,99589.58
2023-04-26T02:04:49.673Z,99592.52
2023-04-26T02:07:17.748Z,99595.79
2023-04-26T02:09:49.061Z,99600.44
2023-04-26T02:12:17.173Z,99595.46
2023-04-26T02:14:45.182Z,99598.73
2023-04-26T02:17:14.744Z,99599.92
2023-04-26T02:19:43.073Z,99599.06
2023-04-26T02:22:11.110Z,99600.94
2023-04-26T02:24:42.989Z,99600.74
2023-04-26T02:27:10.865Z,99596.93
2023-04-26T02:29:44.529Z,99593.50
2023-04-26T02:32:14.399Z,99595.91
2023-04-26T02:34:43.291Z,99596.08
2023-04-26T02:37:11.959Z,99591.61
2023-04-26T02:39:41.309Z,99594.33
2023-04-26T02:42:10.765Z,99601.87
2023-04-26T02:44:39.759Z,99594.98
2023-04-26T02:47:08.601Z,99600.25
2023-04-26T02:49:37.102Z,99603.61
2023-04-26T02:52:05.527Z,99603.04
2023-04-26T02:54:34.102Z,99606.05
2023-04-26T02:57:02.179Z,99610.10
2023-04-26T02:59:30.480Z,99607.96
2023-04-26T03:01:59.014Z,99609.27
2023-04-26T03:04:27.801Z,99608.88
2023-04-26T03:06:55.905Z,99606.90
2023-04-26T03:09:24.692Z,99604.94
2023-04-26T03:11:52.803Z,99604.46
2023-04-26T03:14:21.554Z,99604.75
2023-04-26T03:16:50.142Z,99606.70
2023-04-26T03:19:18.328Z,99610.21
2023-04-26T03:21:47.628Z,99614.61
2023-04-26T03:24:15.829Z,99616.58
2023-04-26T03:26:44.115Z,99620.77
2023-04-26T03:29:13.238Z,99616.23
2023-04-26T03:31:41.830Z,99621.52
2023-04-26T03:34:10.259Z,99627.95
2023-04-26T03:36:38.608Z,99629.26
2023-04-26T03:39:06.990Z,99628.55
2023-04-26T03:41:39.588Z,99633.83
2023-04-26T03:44:08.076Z,99635.34
2023-04-26T03:46:36.225Z,99631.89
2023-04-26T03:49:05.216Z,99633.95
2023-04-26T03:51:33.433Z,99633.60
2023-04-26T03:54:01.678Z,99630.87
2023-04-26T03:56:30.148Z,99635.17
2023-04-26T03:58:58.197Z,99634.81
2023-04-26T04:05:30.669Z,99643.56
2023-04-26T04:07:59.517Z,99642.28
2023-04-26T04:10:27.920Z,99645.38
2023-04-26T04:12:56.111Z,99646.48
2023-04-26T04:15:24.356Z,99644.63
2023-04-26T04:17:52.363Z,99647.09
2023-04-26T04:20:21.476Z,99650.66
2023-04-26T04:22:49.726Z,99651.20
2023-04-26T04:25:17.929Z,99650.89
2023-04-26T04:27:46.076Z,99655.05
2023-04-26T04:34:40.287Z,99653.80
2023-04-26T04:37:09.732Z,99653.73
2023-04-26T04:39:38.222Z,99650.83
2023-04-26T04:42:06.662Z,99657.83
2023-04-26T04:44:35.537Z,99657.45
2023-04-26T04:47:04.139Z,99657.98
2023-04-26T04:49:32.052Z,99660.28
2023-04-26T04:51:59.940Z,99663.30
2023-04-26T04:54:28.775Z,99664.45
2023-04-26T04:56:57.676Z,99671.05
2023-04-26T04:59:25.982Z,99666.58
2023-04-26T05:01:54.500Z,99668.43
2023-04-26T05:04:22.768Z,99669.50
2023-04-26T05:06:51.620Z,99672.30
2023-04-26T05:09:19.723Z,99673.52
2023-04-26T05:11:47.980Z,99676.36
2023-04-26T05:14:16.945Z,99677.96
2023-04-26T05:16:44.961Z,99676.95
2023-04-26T05:19:15.633Z,99683.36
2023-04-26T05:21:43.756Z,99687.49
2023-04-26T05:24:13.012Z,99692.95
2023-04-26T05:26:42.458Z,99695.13
2023-04-26T05:29:31.762Z,99698.18
2023-04-26T05:32:22.668Z,99694.18
2023-04-26T05:34:57.507Z,99700.71
2023-04-26T05:37:25.537Z,99699.18
2023-04-26T05:39:53.563Z,99703.08
2023-04-26T05:42:21.841Z,99701.68
2023-04-26T05:44:50.233Z,99708.70
2023-04-26T05:47:18.830Z,99706.11
2023-04-26T05:49:46.910Z,99707.40
2023-04-26T05:52:14.976Z,99704.27
2023-04-26T05:54:43.024Z,99704.48
2023-04-26T05:57:11.176Z,99702.16
2023-04-26T05:59:40.608Z,99702.31
2023-04-26T06:02:08.661Z,99695.84
2023-04-26T06:04:36.644Z,99699.06
2023-04-26T06:07:08.371Z,99705.82
2023-04-26T06:09:36.334Z,99701.77
2023-04-26T06:12:04.612Z,99704.48
2023-04-26T06:14:34.498Z,99701.66
2023-04-26T06:17:06.171Z,99708.48
2023-04-26T06:19:35.235Z,99709.94
2023-04-26T06:22:03.607Z,99706.52
2023-04-26T06:24:31.957Z,99705.66
2023-04-26T06:27:00.110Z,99706.52
2023-04-26T06:29:32.892Z,99708.65
2023-04-26T06:32:01.413Z,99705.92
2023-04-26T06:34:30.709Z,99702.10
2023-04-26T06:36:58.782Z,99707.30
2023-04-26T06:39:28.220Z,99706.05
2023-04-26T06:41:56.357Z,99714.09
2023-04-26T06:44:31.020Z,99711.77
2023-04-26T06:47:09.380Z,99710.45
2023-04-26T06:49:37.588Z,99705.48
2023-04-26T06:52:08.221Z,99707.98
2023-04-26T06:54:45.921Z,99713.81
2023-04-26T06:57:18.091Z,99714.15
2023-04-26T06:59:46.331Z,99711.64
2023-04-26T07:02:15.811Z,99711.84
2023-04-26T07:04:44.249Z,99717.73
2023-04-26T07:07:13.774Z,99724.39
2023-04-26T07:09:41.858Z,99720.02
2023-04-26T07:12:14.038Z,99724.67
2023-04-26T07:14:43.429Z,99723.04
2023-04-26T07:17:11.522Z,99729.98
2023-04-26T07:19:39.750Z,99720.86
2023-04-26T07:22:07.949Z,99729.65
2023-04-26T07:24:36.013Z,99734.98
2023-04-26T07:27:04.389Z,99736.47
2023-04-26T07:29:32.365Z,99736.41
2023-04-26T07:32:00.511Z,99738.28
2023-04-26T07:34:28.450Z,99743.76
2023-04-26T07:36:56.737Z,99745.20
2023-04-26T07:39:24.915Z,99740.93
2023-04-26T07:41:53.757Z,99739.14
2023-04-26T07:44:22.335Z,99742.23
2023-04-26T07:46:51.101Z,99740.85
2023-04-26T07:49:18.976Z,99741.19
2023-04-26T07:51:47.420Z,99743.39
2023-04-26T07:54:15.406Z,99745.21
2023-04-26T07:56:43.450Z,99749.04
2023-04-26T07:59:11.402Z,99756.88
2023-04-26T08:01:39.530Z,99757.29
2023-04-26T08:04:08.280Z,99751.95
2023-04-26T08:06:37.310Z,99760.46
2023-04-26T08:09:05.534Z,99764.10
2023-04-26T08:11:33.608Z,99765.94
2023-04-26T08:14:01.834Z,99768.83
2023-04-26T08:16:29.830Z,99770.35
2023-04-26T08:19:02.784Z,99772.48
2023-04-26T08:21:31.821Z,99764.84
2023-04-26T08:23:59.924Z,99761.65
2023-04-26T08:26:27.800Z,99765.38
2023-04-26T08:28:55.677Z,99767.49
2023-04-26T08:31:23.781Z,99764.19
2023-04-26T08:33:51.975Z,99768.36
2023-04-26T08:36:20.800Z,99766.52
2023-04-26T08:38:48.739Z,99765.41
2023-04-26T08:41:23.678Z,99765.98
2023-04-26T08:43:52.939Z,99769.24
2023-04-26T08:46:21.763Z,99765.31
2023-04-26T08:48:59.020Z,99761.85
2023-04-26T08:51:29.014Z,99772.41
2023-04-26T08:53:59.817Z,99773.44
2023-04-26T08:56:28.465Z,99777.23
2023-04-26T08:58:57.009Z,99781.19
2023-04-26T09:01:26.333Z,99781.85
2023-04-26T09:03:57.018Z,99789.45
2023-04-26T09:06:28.157Z,99785.54
2023-04-26T09:08:57.728Z,99786.02
2023-04-26T09:11:26.489Z,99791.55
2023-04-26T09:13:54.898Z,99785.40
2023-04-26T09:16:43.079Z,99787.29
2023-04-26T09:19:11.015Z,99797.05
2023-04-26T09:21:47.282Z,99792.24
2023-04-26T09:24:16.180Z,99798.04
2023-04-26T09:26:44.253Z,99798.02
2023-04-26T09:29:12.614Z,99796.84
2023-04-26T09:31:45.836Z,99801.13
2023-04-26T09:34:16.359Z,99801.31
2023-04-26T09:36:57.686Z,99795.95
2023-04-26T09:39:38.217Z,99801.98
2023-04-26T09:42:12.491Z,99804.41
2023-04-26T09:44:40.461Z,99810.50
2023-04-26T09:47:10.912Z,99812.41
2023-04-26T09:49:48.719Z,99807.39
2023-04-26T09:52:18.450Z,99802.51
2023-04-26T09:54:52.102Z,99800.16
2023-04-26T09:57:24.469Z,99799.45
2023-04-26T09:59:55.640Z,99809.93
2023-04-26T10:02:26.465Z,99813.80
2023-04-26T10:04:57.747Z,99808.52
2023-04-26T10:07:26.607Z,99799.25
2023-04-26T10:09:57.343Z,99803.35
2023-04-26T10:12:25.287Z,99806.23
2023-04-26T10:14:53.284Z,99810.41
2023-04-26T10:17:22.004Z,99809.39
2023-04-26T10:19:53.712Z,99811.23
2023-04-26T10:22:24.076Z,99815.43
2023-04-26T10:24:54.340Z,99807.49
2023-04-26T10:27:44.382Z,99804.75
2023-04-26T10:30:17.366Z,99810.73
2023-04-26T10:32:57.725Z,99815.03
2023-04-26T10:35:30.980Z,99817.32
2023-04-26T10:38:02.228Z,99820.34
2023-04-26T10:40:36.602Z,99820.23
2023-04-26T10:43:17.434Z,99818.36
2023-04-26T10:45:46.829Z,99825.58
2023-04-26T10:48:19.307Z,99825.52
2023-04-26T10:51:04.430Z,99824.05
2023-04-26T10:53:33.612Z,99830.73
2023-04-26T10:56:02.541Z,99830.56
2023-04-26T10:58:35.161Z,99828.16
2023-04-26T11:04:53.239Z,99837.22
2023-04-26T11:07:37.870Z,99831.18
2023-04-26T11:10:12.584Z,99831.69
2023-04-26T11:12:42.692Z,99843.31
2023-04-26T11:15:12.915Z,99847.77
2023-04-26T11:17:40.960Z,99843.92
2023-04-26T11:20:10.153Z,99849.08
2023-04-26T11:22:42.140Z,99853.27
2023-04-26T11:25:13.377Z,99851.02
2023-04-26T11:27:44.256Z,99849.46
2023-04-26T11:30:13.334Z,99852.69
2023-04-26T11:32:41.904Z,99849.69
2023-04-26T11:35:10.231Z,99856.27
2023-04-26T11:37:38.455Z,99855.50
2023-04-26T11:40:10.672Z,99856.58
2023-04-26T11:42:38.790Z,99856.34
2023-04-26T11:45:08.826Z,99858.50
2023-04-26T11:47:37.453Z,99857.88
2023-04-26T11:50:07.342Z,99858.02
2023-04-26T11:52:35.671Z,99859.71
2023-04-26T11:55:07.869Z,99860.56
2023-04-26T11:57:36.119Z,99865.27
2023-04-26T12:00:14.398Z,99865.14
2023-04-26T12:02:46.774Z,99870.06
2023-04-26T12:05:24.680Z,99872.11
2023-04-26T12:07:57.591Z,99877.95
2023-04-26T12:10:27.932Z,99877.50
2023-04-26T12:12:58.843Z,99881.73
2023-04-26T12:15:32.666Z,99878.11
2023-04-26T12:18:10.188Z,99890.87
2023-04-26T12:20:41.033Z,99889.65
2023-04-26T12:23:13.557Z,99899.96
2023-04-26T12:25:52.626Z,99898.23
2023-04-26T12:28:21.405Z,99891.24
2023-04-26T12:30:50.522Z,99888.44
2023-04-26T12:33:23.078Z,99894.67
2023-04-26T12:35:51.945Z,99892.45
2023-04-26T12:38:20.234Z,99896.42
2023-04-26T12:40:48.605Z,99895.36
2023-04-26T12:43:18.400Z,99893.65
2023-04-26T12:45:47.753Z,99891.83
2023-04-26T12:48:16.644Z,99897.95
2023-04-26T12:50:45.975Z,99901.98
2023-04-26T12:53:14.204Z,99903.64
2023-04-26T12:55:42.628Z,99910.95
2023-04-26T12:58:11.150Z,99910.25
2023-04-26T13:00:39.537Z,99909.84
2023-04-26T13:03:07.809Z,99905.73
2023-04-26T13:05:36.536Z,99904.80
2023-04-26T13:08:04.891Z,99905.96
2023-04-26T13:10:33.184Z,99903.27
2023-04-26T13:13:01.952Z,99907.45
2023-04-26T13:15:30.163Z,99910.89
2023-04-26T13:17:58.416Z,99910.27
2023-04-26T13:20:28.908Z,99910.86
2023-04-26T13:22:58.383Z,99912.59
2023-04-26T13:25:26.813Z,99908.60
2023-04-26T13:27:55.589Z,99910.67
2023-04-26T13:30:23.658Z,99913.52
2023-04-26T13:32:52.673Z,99912.88
2023-04-26T13:35:21.588Z,99912.34
2023-04-26T13:38:07.841Z,99910.28
2023-04-26T13:40:37.850Z,99918.34
2023-04-26T13:43:06.053Z,99921.85
2023-04-26T13:45:36.757Z,99919.11
2023-04-26T13:48:05.178Z,99922.10
2023-04-26T13:50:33.328Z,99922.58
2023-04-26T13:53:01.786Z,99925.05
2023-04-26T13:55:30.079Z,99928.75
2023-04-26T13:57:58.327Z,99930.64
2023-04-26T14:00:26.702Z,99937.52
2023-04-26T14:02:55.003Z,99940.09
2023-04-26T14:05:23.896Z,99938.46
2023-04-26T14:07:54.359Z,99936.70
2023-04-26T14:10:23.633Z,99945.89
2023-04-26T14:12:52.216Z,99955.80
2023-04-26T14:15:20.519Z,99957.92
2023-04-26T14:17:48.837Z,99960.59
2023-04-26T14:20:17.131Z,99962.88
2023-04-26T14:22:45.578Z,99967.09
2023-04-26T14:25:13.663Z,99972.16
2023-04-26T14:27:41.857Z,99979.27
2023-04-26T14:30:10.225Z,99985.32
2023-04-26T14:32:38.384Z,99987.91
2023-04-26T14:35:07.261Z,99988.96
2023-04-26T14:37:35.312Z,99989.80
2023-04-26T14:40:04.919Z,99985.13
2023-04-26T14:42:33.148Z,99988.20
2023-04-26T14:45:02.099Z,99987.50
2023-04-26T14:47:31.571Z,99987.34
2023-04-26T14:49:59.947Z,99996.89
2023-04-26T14:52:29.276Z,99997.07
2023-04-26T14:54:58.614Z,99996.90
2023-04-26T14:57:27.131Z,99997.24
2023-04-26T14:59:56.457Z,99997.77
2023-04-26T15:02:24.478Z,99993.27
2023-04-26T15:04:52.882Z,99997.25
2023-04-26T15:07:31.274Z,100003.99
2023-04-26T15:10:00.912Z,100009.18
2023-04-26T15:12:29.107Z,100009.17
2023-04-26T15:14:57.160Z,100011.25
2023-04-26T15:17:25.394Z,100010.38
2023-04-26T15:19:53.463Z,100014.70
2023-04-26T15:22:21.440Z,100016.59
2023-04-26T15:24:51.166Z,100016.41
2023-04-26T15:27:21.161Z,100025.04
2023-04-26T15:29:49.522Z,100022.44
2023-04-26T15:32:17.563Z,100024.33
2023-04-26T15:34:45.984Z,100024.31
2023-04-26T15:37:14.096Z,100024.65
2023-04-26T15:39:42.321Z,100022.08
2023-04-26T15:42:11.215Z,100025.86
2023-04-26T15:44:39.296Z,100022.75
2023-04-26T15:47:07.688Z,100020.51
2023-04-26T15:49:36.196Z,100021.90
2023-04-26T15:52:04.256Z,100023.11
2023-04-26T15:54:32.401Z,100022.27
2023-04-26T15:57:00.474Z,100023.48
2023-04-26T15:59:30.779Z,100024.67
2023-04-26T16:01:59.168Z,100022.95
2023-04-26T16:04:27.593Z,100024.15
2023-04-26T16:06:56.348Z,100026.56
2023-04-26T16:09:26.100Z,100026.20
2023-04-26T16:11:55.038Z,100031.86
2023-04-26T16:14:23.172Z,100036.84
2023-04-26T16:16:51.701Z,100033.20
2023-04-26T16:19:19.663Z,100033.36
2023-04-26T16:21:47.622Z,100030.60
2023-04-26T16:24:16.579Z,100029.37
2023-04-26T16:26:44.617Z,100025.55
2023-04-26T16:29:13.999Z,100029.70
2023-04-26T16:31:42.387Z,100035.05
2023-04-26T16:34:10.500Z,100037.98
2023-04-26T16:36:38.566Z,100038.52
2023-04-26T16:39:07.654Z,100037.83
2023-04-26T16:41:35.799Z,100040.95
2023-04-26T16:44:03.813Z,100040.61
2023-04-26T16:46:32.594Z,100045.08
2023-04-26T16:49:00.676Z,100048.34
2023-04-26T16:51:28.808Z,100045.73
2023-04-26T16:53:56.941Z,100044.86
2023-04-26T16:56:25.040Z,100045.90
2023-04-26T16:58:53.728Z,100046.73
2023-04-26T17:01:21.812Z,100040.52
2023-04-26T17:03:50.027Z,100039.48
2023-04-26T17:06:18.299Z,100046.20
2023-04-26T17:08:46.444Z,100047.95
2023-04-26T17:11:16.800Z,100050.88
2023-04-26T17:13:45.530Z,100056.38
2023-04-26T17:16:13.675Z,100058.27
2023-04-26T17:18:41.972Z,100062.23
2023-04-26T17:21:10.248Z,100066.02
2023-04-26T17:23:38.396Z,100067.55
2023-04-26T17:26:06.733Z,100069.77
2023-04-26T17:28:34.814Z,100075.95
2023-04-26T17:31:03.823Z,100074.05
2023-04-26T17:33:32.804Z,100075.20
2023-04-26T17:36:01.814Z,100077.20
2023-04-26T17:38:30.042Z,100075.45
2023-04-26T17:40:59.529Z,100080.39
2023-04-26T17:43:27.555Z,100078.47
2023-04-26T17:45:57.298Z,100085.33
2023-04-26T17:48:25.569Z,100086.17
2023-04-26T17:50:53.814Z,100093.90
2023-04-26T17:53:22.800Z,100099.73
2023-04-26T17:55:52.210Z,100096.09
2023-04-26T17:58:20.689Z,100097.45
2023-04-26T18:00:49.069Z,100100.86
2023-04-26T18:03:18.242Z,100104.45
2023-04-26T18:05:47.343Z,100113.67
2023-04-26T18:08:15.721Z,100114.45
2023-04-26T18:10:43.936Z,100116.95
2023-04-26T18:13:12.339Z,100117.02
2023-04-26T18:15:40.567Z,100120.91
2023-04-26T18:18:09.734Z,100123.27
2023-04-26T18:20:38.054Z,100124.05
2023-04-26T18:23:06.422Z,100127.25
2023-04-26T18:25:34.807Z,100125.45
2023-04-26T18:28:02.967Z,100128.98
2023-04-26T18:30:31.068Z,100134.23
2023-04-26T18:33:08.694Z,100137.25
2023-04-26T18:35:36.943Z,100141.30
2023-04-26T18:38:06.192Z,100140.16
2023-04-26T18:40:34.334Z,100145.77
2023-04-26T18:43:02.359Z,100145.48
2023-04-26T18:45:33.858Z,100154.46
2023-04-26T18:48:02.169Z,100157.73
2023-04-26T18:50:30.681Z,100157.09
2023-04-26T18:52:58.873Z,100159.55
2023-04-26T18:55:27.001Z,100161.25
2023-04-26T18:57:55.488Z,100163.81
2023-04-26T19:04:34.647Z,100166.30
2023-04-26T19:07:02.902Z,100168.02
2023-04-26T19:09:46.488Z,100175.27
2023-04-26T19:12:15.049Z,100173.77
2023-04-26T19:14:43.035Z,100178.00
2023-04-26T19:17:11.370Z,100180.66
2023-04-26T19:19:39.329Z,100181.14
2023-04-26T19:22:07.280Z,100177.86
2023-04-26T19:24:35.305Z,100182.61
2023-04-26T19:27:03.765Z,100183.08
2023-04-26T19:29:31.923Z,100184.92
2023-04-26T19:32:04.624Z,100183.34
2023-04-26T19:34:38.827Z,100184.52
2023-04-26T19:37:07.207Z,100180.97
2023-04-26T19:39:35.215Z,100184.58
2023-04-26T19:42:03.560Z,100189.10
2023-04-26T19:44:31.673Z,100190.26
2023-04-26T19:46:59.639Z,100189.71
2023-04-26T19:49:29.135Z,100190.23
2023-04-26T19:51:57.512Z,100189.02
2023-04-26T19:54:25.628Z,100191.75
2023-04-26T19:56:53.605Z,100188.19
2023-04-26T19:59:22.227Z,100190.64
2023-04-26T20:01:51.684Z,100191.20
2023-04-26T20:04:21.758Z,100191.77
2023-04-26T20:06:49.849Z,100189.52
2023-04-26T20:09:18.382Z,100190.49
2023-04-26T20:11:46.696Z,100194.72
2023-04-26T20:14:14.554Z,100192.73
2023-04-26T20:16:42.880Z,100195.04
2023-04-26T20:19:10.894Z,100198.09
2023-04-26T20:21:38.861Z,100201.52
2023-04-26T20:24:07.133Z,100199.11
2023-04-26T20:26:35.229Z,100204.45
2023-04-26T20:29:03.782Z,100207.02
2023-04-26T20:31:33.210Z,100205.10
2023-04-26T20:34:01.535Z,100205.42
2023-04-26T20:36:29.693Z,100203.39
2023-04-26T20:38:57.716Z,100205.13
2023-04-26T20:41:25.714Z,100203.65
2023-04-26T20:43:53.856Z,100206.11
2023-04-26T20:46:21.903Z,100208.52
2023-04-26T20:48:49.878Z,100209.77
2023-04-26T20:51:18.366Z,100209.65
2023-04-26T20:53:48.212Z,100211.20
2023-04-26T20:56:16.269Z,100215.19
2023-04-26T20:58:44.249Z,100212.16
2023-04-26T21:01:12.262Z,100214.64
2023-04-26T21:03:40.357Z,100219.02
2023-04-26T21:06:08.408Z,100219.48
2023-04-26T21:08:37.101Z,100216.87
2023-04-26T21:11:05.259Z,100216.28
2023-04-26T21:13:34.468Z,100219.23
2023-04-26T21:16:03.014Z,100224.70
2023-04-26T21:18:31.272Z,100225.26
2023-04-26T21:20:59.248Z,100229.33
2023-04-26T21:23:27.324Z,100228.70
2023-04-26T21:25:57.639Z,100233.70
2023-04-26T21:28:25.653Z,100237.15
2023-04-26T21:31:07.160Z,100238.68
2023-04-26T21:33:35.751Z,100240.17
2023-04-26T21:36:05.099Z,100244.48
2023-04-26T21:38:33.029Z,100247.22
2023-04-26T21:41:01.159Z,100251.13
2023-04-26T21:43:29.122Z,100250.89
2023-04-26T21:45:58.441Z,100252.02
2023-04-26T21:48:26.899Z,100256.73
2023-04-26T21:50:54.959Z,100257.48
2023-04-26T21:53:23.071Z,100261.63
2023-04-26T21:56:05.682Z,100264.50
2023-04-26T21:58:33.824Z,100265.33
2023-04-26T22:01:10.114Z,100262.39
2023-04-26T22:03:38.424Z,100264.50
2023-04-26T22:06:07.896Z,100267.11
2023-04-26T22:08:35.980Z,100272.00
2023-04-26T22:11:04.369Z,100275.45
2023-04-26T22:13:32.808Z,100273.56
2023-04-26T22:16:01.110Z,100275.13
2023-04-26T22:18:29.456Z,100277.23
2023-04-26T22:20:57.556Z,100276.82
2023-04-26T22:23:26.683Z,100276.83
2023-04-26T22:25:54.872Z,100275.96
2023-04-26T22:28:22.875Z,100279.91
2023-04-26T22:30:51.026Z,100282.60
2023-04-26T22:33:19.829Z,100287.71
2023-04-26T22:35:48.075Z,100285.77
2023-04-26T22:38:16.060Z,100288.27
2023-04-26T22:40:43.925Z,100290.39
2023-04-26T22:43:11.852Z,100293.92
2023-04-26T22:45:39.907Z,100295.90
2023-04-26T22:48:07.928Z,100299.02
2023-04-26T22:50:36.045Z,100300.05
2023-04-26T22:53:04.037Z,100306.66
2023-04-26T22:55:32.282Z,100307.29
2023-04-26T22:58:00.545Z,100308.02
2023-04-26T23:00:28.527Z,100310.71
2023-04-26T23:02:56.415Z,100315.54
2023-04-26T23:05:24.516Z,100319.05
2023-04-26T23:07:52.528Z,100324.39
2023-04-26T23:10:21.133Z,100323.27
2023-04-26T23:12:50.140Z,100323.77
2023-04-26T23:15:19.165Z,100324.28
2023-04-26T23:17:47.375Z,100329.77
2023-04-26T23:20:15.909Z,100327.55
2023-04-26T23:22:44.026Z,100332.58
2023-04-26T23:25:12.042Z,100334.98
2023-04-26T23:27:40.130Z,100330.52
2023-04-26T23:30:08.826Z,100331.84
2023-04-26T23:32:36.840Z,100335.10
2023-04-26T23:35:05.596Z,100334.98
2023-04-26T23:37:33.844Z,100334.29
2023-04-26T23:40:01.947Z,100333.48
2023-04-26T23:42:29.844Z,100338.50
2023-04-26T23:44:57.794Z,100336.95
2023-04-26T23:47:27.279Z,100334.60
2023-04-26T23:49:55.516Z,100337.21
2023-04-26T23:52:23.517Z,100339.59
2023-04-26T23:54:51.620Z,100337.88
2023-04-26T23:57:20.746Z,100340.77
2023-04-26T23:59:48.711Z,100336.96
